createdAt,value
2023-02-03T00:02:06.270Z,-0.01
2023-02-03T00:04:34.076Z,-0.03
2023-02-03T00:07:01.782Z,0.24
2023-02-03T00:09:29.627Z,0.07
2023-02-03T00:11:57.402Z,-0.10
2023-02-03T00:14:25.121Z,0.30
2023-02-03T00:16:52.916Z,0.19
2023-02-03T00:19:20.617Z,0.03
2023-02-03T00:21:48.386Z,-0.57
2023-02-03T00:24:16.260Z,-0.60
2023-02-03T00:26:43.981Z,-0.35
2023-02-03T00:29:11.797Z,-0.88
2023-02-03T00:31:39.689Z,-1.65
2023-02-03T00:34:07.428Z,-1.70
2023-02-03T00:36:36.152Z,-1.29
2023-02-03T00:39:03.901Z,-0.94
2023-02-03T00:41:31.810Z,-0.77
2023-02-03T00:43:59.591Z,-1.36
2023-02-03T00:46:27.395Z,-1.10
2023-02-03T00:48:55.111Z,-0.74
2023-02-03T00:51:22.848Z,-0.60
2023-02-03T00:53:50.701Z,-0.94
2023-02-03T00:56:18.398Z,-0.43
2023-02-03T00:58:46.639Z,-0.67
2023-02-03T01:01:14.449Z,-0.72
2023-02-03T01:03:42.652Z,-0.53
2023-02-03T01:06:17.270Z,-1.07
2023-02-03T01:08:45.365Z,-1.03
2023-02-03T01:11:18.046Z,-1.10
2023-02-03T01:13:46.071Z,-1.02
2023-02-03T01:16:15.690Z,-1.01
2023-02-03T01:18:43.796Z,-0.58
2023-02-03T01:21:16.390Z,-0.11
2023-02-03T01:23:44.193Z,0.07
2023-02-03T01:26:13.675Z,-0.38
2023-02-03T01:28:41.606Z,-0.29
2023-02-03T01:31:19.773Z,-0.14
2023-02-03T01:33:48.656Z,-0.68
2023-02-03T01:36:16.643Z,-0.25
2023-02-03T01:38:45.199Z,-0.39
2023-02-03T01:41:15.157Z,-0.29
2023-02-03T01:43:45.579Z,-0.03
2023-02-03T01:46:31.619Z,-0.01
2023-02-03T01:49:12.974Z,0.07
2023-02-03T01:51:41.785Z,0.16
2023-02-03T01:54:10.260Z,0.24
2023-02-03T01:56:40.162Z,-0.11
2023-02-03T01:59:07.863Z,0.48
2023-02-03T02:01:35.589Z,0.28
2023-02-03T02:04:04.925Z,-0.31
2023-02-03T02:06:32.619Z,-0.41
2023-02-03T02:09:01.014Z,-0.73
2023-02-03T02:11:28.785Z,-0.57
2023-02-03T02:13:59.393Z,-0.90
2023-02-03T02:16:29.750Z,-0.13
2023-02-03T02:19:01.305Z,-0.20
2023-02-03T02:21:42.240Z,0.18
2023-02-03T02:24:27.991Z,0.60
2023-02-03T02:27:35.171Z,0.53
2023-02-03T02:30:21.107Z,-0.02
2023-02-03T02:32:57.726Z,-0.39
2023-02-03T02:35:46.122Z,0.23
2023-02-03T02:38:36.003Z,0.52
2023-02-03T02:41:19.424Z,-0.31
2023-02-03T02:43:49.786Z,0.30
2023-02-03T02:46:19.763Z,0.36
2023-02-03T02:48:52.940Z,0.19
2023-02-03T02:51:20.719Z,-0.01
2023-02-03T02:53:52.332Z,-0.31
2023-02-03T02:56:21.329Z,-0.02
2023-02-03T02:58:50.004Z,-0.35
2023-02-03T03:01:19.267Z,0.27
2023-02-03T03:03:47.180Z,-0.23
2023-02-03T03:06:33.941Z,0.01
2023-02-03T03:09:17.511Z,0.09
2023-02-03T03:11:54.638Z,0.16
2023-02-03T03:14:22.807Z,0.31
2023-02-03T03:16:53.868Z,0.67
2023-02-03T03:19:23.482Z,0.46
2023-02-03T03:21:53.972Z,0.66
2023-02-03T03:24:29.777Z,0.47
2023-02-03T03:27:10.227Z,0.25
2023-02-03T03:29:55.036Z,0.07
2023-02-03T03:32:22.872Z,0.34
2023-02-03T03:34:50.763Z,0.55
2023-02-03T03:37:24.648Z,0.32
2023-02-03T03:39:59.165Z,0.43
2023-02-03T03:42:26.812Z,0.67
2023-02-03T03:44:59.735Z,0.89
2023-02-03T03:47:33.578Z,0.94
2023-02-03T03:50:01.461Z,1.00
2023-02-03T03:52:31.721Z,1.23
2023-02-03T03:54:59.735Z,1.21
2023-02-03T03:57:33.973Z,1.33
2023-02-03T04:00:02.218Z,0.80
2023-02-03T04:02:39.896Z,0.98
2023-02-03T04:05:08.396Z,0.68
2023-02-03T04:07:46.003Z,0.73
2023-02-03T04:10:19.015Z,1.05
2023-02-03T04:12:46.735Z,1.36
2023-02-03T04:15:14.515Z,1.13
2023-02-03T04:17:42.328Z,1.23
2023-02-03T04:20:10.693Z,1.07
2023-02-03T04:22:38.448Z,0.58
2023-02-03T04:25:06.341Z,0.58
2023-02-03T04:27:34.631Z,0.46
2023-02-03T04:30:02.337Z,0.97
2023-02-03T04:32:31.144Z,0.78
2023-02-03T04:34:58.876Z,0.83
2023-02-03T04:37:26.959Z,0.46
2023-02-03T04:39:55.454Z,0.56
2023-02-03T04:42:23.455Z,0.94
2023-02-03T04:44:51.438Z,0.86
2023-02-03T04:47:19.262Z,0.99
2023-02-03T04:49:47.050Z,0.24
2023-02-03T04:52:14.878Z,0.99
2023-02-03T04:54:42.605Z,1.09
2023-02-03T04:57:10.315Z,-0.30
2023-02-03T04:59:37.976Z,0.27
2023-02-03T05:02:06.009Z,0.80
2023-02-03T05:04:33.700Z,0.32
2023-02-03T05:07:01.414Z,0.88
2023-02-03T05:09:29.190Z,0.74
2023-02-03T05:11:56.973Z,0.66
2023-02-03T05:14:24.619Z,0.81
2023-02-03T05:16:52.403Z,0.69
2023-02-03T05:19:20.140Z,0.67
2023-02-03T05:21:48.578Z,0.77
2023-02-03T05:24:16.241Z,0.79
2023-02-03T05:26:43.937Z,0.60
2023-02-03T05:29:11.961Z,1.06
2023-02-03T05:31:39.791Z,0.18
2023-02-03T05:34:07.712Z,0.43
2023-02-03T05:36:35.383Z,-0.11
2023-02-03T05:39:03.053Z,-0.36
2023-02-03T05:41:49.702Z,-0.20
2023-02-03T05:44:17.439Z,0.09
2023-02-03T05:46:45.147Z,-0.24
2023-02-03T05:49:12.932Z,-0.44
2023-02-03T05:51:40.675Z,-0.52
2023-02-03T05:54:08.537Z,-0.38
2023-02-03T05:56:36.531Z,-0.21
2023-02-03T05:59:04.654Z,0.13
2023-02-03T06:01:32.778Z,0.56
2023-02-03T06:04:00.940Z,0.50
2023-02-03T06:06:33.849Z,0.61
2023-02-03T06:09:02.303Z,0.71
2023-02-03T06:11:30.133Z,0.87
2023-02-03T06:14:00.944Z,1.05
2023-02-03T06:16:28.871Z,1.13
2023-02-03T06:19:00.994Z,0.90
2023-02-03T06:21:28.891Z,0.80
2023-02-03T06:23:56.795Z,0.67
2023-02-03T06:26:25.482Z,0.90
2023-02-03T06:28:53.282Z,0.92
2023-02-03T06:31:21.060Z,1.02
2023-02-03T06:33:48.935Z,1.23
2023-02-03T06:36:16.664Z,1.24
2023-02-03T06:38:44.423Z,1.39
2023-02-03T06:41:12.176Z,1.15
2023-02-03T06:43:39.930Z,0.44
2023-02-03T06:46:07.984Z,0.87
2023-02-03T06:48:35.782Z,0.86
2023-02-03T06:51:04.306Z,0.86
2023-02-03T06:53:32.016Z,0.81
2023-02-03T06:56:02.123Z,0.94
2023-02-03T06:58:29.903Z,0.52
2023-02-03T07:00:57.645Z,1.14
2023-02-03T07:03:25.402Z,0.85
2023-02-03T07:05:53.088Z,1.19
2023-02-03T07:08:20.884Z,1.15
2023-02-03T07:10:48.557Z,1.04
2023-02-03T07:13:16.369Z,1.14
2023-02-03T07:15:44.141Z,0.98
2023-02-03T07:18:13.107Z,1.35
2023-02-03T07:20:42.768Z,1.29
2023-02-03T07:23:10.450Z,1.63
2023-02-03T07:25:38.311Z,1.96
2023-02-03T07:28:06.072Z,1.30
2023-02-03T07:30:33.754Z,1.90
2023-02-03T07:33:01.654Z,2.19
2023-02-03T07:35:29.332Z,2.18
2023-02-03T07:37:57.036Z,2.56
2023-02-03T07:40:24.866Z,2.83
2023-02-03T07:42:52.941Z,2.76
2023-02-03T07:45:22.237Z,2.95
2023-02-03T07:47:49.953Z,2.96
2023-02-03T07:50:17.814Z,3.02
2023-02-03T07:52:45.579Z,3.05
2023-02-03T07:55:13.251Z,2.90
2023-02-03T07:57:43.608Z,3.37
2023-02-03T08:00:13.063Z,5.00
2023-02-03T08:02:42.046Z,6.90
2023-02-03T08:05:10.203Z,7.68
2023-02-03T08:07:37.981Z,8.73
2023-02-03T08:10:06.286Z,10.01
2023-02-03T08:12:34.001Z,12.29
2023-02-03T08:15:01.817Z,13.80
2023-02-03T08:17:29.623Z,14.82
2023-02-03T08:19:57.360Z,15.70
2023-02-03T08:22:25.177Z,17.21
2023-02-03T08:24:53.351Z,14.27
2023-02-03T08:27:22.206Z,14.18
2023-02-03T08:29:49.883Z,15.52
2023-02-03T08:32:19.488Z,16.29
2023-02-03T08:34:47.598Z,15.99
2023-02-03T08:37:15.948Z,15.89
2023-02-03T08:39:43.683Z,15.00
2023-02-03T08:42:11.470Z,13.09
2023-02-03T08:44:39.165Z,11.69
2023-02-03T08:47:07.450Z,11.45
2023-02-03T08:49:35.972Z,10.91
2023-02-03T08:52:03.807Z,11.40
2023-02-03T08:54:32.187Z,13.63
2023-02-03T08:56:59.946Z,15.65
2023-02-03T08:59:27.790Z,12.51
2023-02-03T09:01:55.632Z,10.89
2023-02-03T09:04:24.925Z,10.14
2023-02-03T09:06:54.491Z,8.05
2023-02-03T09:09:22.584Z,6.66
2023-02-03T09:11:50.379Z,6.55
2023-02-03T09:14:18.193Z,4.94
2023-02-03T09:16:45.989Z,5.41
2023-02-03T09:19:13.780Z,7.35
2023-02-03T09:21:43.131Z,5.31
2023-02-03T09:24:14.195Z,6.23
2023-02-03T09:26:41.892Z,5.47
2023-02-03T09:29:09.665Z,5.13
2023-02-03T09:31:37.401Z,5.29
2023-02-03T09:34:05.229Z,4.92
2023-02-03T09:36:32.987Z,3.74
2023-02-03T09:39:00.709Z,5.35
2023-02-03T09:41:46.744Z,4.14
2023-02-03T09:44:18.540Z,4.38
2023-02-03T09:46:48.848Z,3.56
2023-02-03T09:49:19.558Z,2.79
2023-02-03T09:51:50.230Z,3.22
2023-02-03T09:54:44.180Z,4.22
2023-02-03T09:57:23.208Z,4.03
2023-02-03T09:59:51.090Z,4.29
2023-02-03T10:02:37.481Z,4.17
2023-02-03T10:05:23.094Z,4.15
2023-02-03T10:08:07.009Z,3.74
2023-02-03T10:10:35.074Z,3.98
2023-02-03T10:13:05.270Z,4.20
2023-02-03T10:15:42.409Z,4.67
2023-02-03T10:18:13.037Z,5.00
2023-02-03T10:20:43.475Z,4.63
2023-02-03T10:23:23.967Z,4.83
2023-02-03T10:25:57.731Z,4.62
2023-02-03T10:28:36.696Z,4.29
2023-02-03T10:31:10.012Z,5.59
2023-02-03T10:33:37.854Z,5.74
2023-02-03T10:36:22.543Z,4.58
2023-02-03T10:39:19.475Z,6.01
2023-02-03T10:41:47.218Z,5.36
2023-02-03T10:44:14.947Z,5.40
2023-02-03T10:46:43.963Z,5.55
2023-02-03T10:49:14.869Z,5.44
2023-02-03T10:51:50.879Z,5.11
2023-02-03T10:54:32.820Z,4.72
2023-02-03T10:57:10.325Z,4.33
2023-02-03T10:59:44.105Z,3.96
2023-02-03T11:02:29.490Z,4.37
2023-02-03T11:05:16.173Z,4.50
2023-02-03T11:07:44.308Z,3.63
2023-02-03T11:10:30.578Z,4.02
2023-02-03T11:13:10.837Z,4.02
2023-02-03T11:15:43.774Z,4.32
2023-02-03T11:18:42.679Z,4.29
2023-02-03T11:21:39.253Z,3.68
2023-02-03T11:24:22.710Z,3.44
2023-02-03T11:26:55.290Z,3.57
2023-02-03T11:29:34.484Z,3.71
2023-02-03T11:32:04.685Z,3.65
2023-02-03T11:34:36.853Z,4.24
2023-02-03T11:37:31.198Z,4.10
2023-02-03T11:40:07.664Z,3.86
2023-02-03T11:42:36.295Z,4.61
2023-02-03T11:45:32.166Z,4.04
2023-02-03T11:48:31.819Z,4.41
2023-02-03T11:51:23.737Z,4.29
2023-02-03T11:54:28.821Z,4.18
2023-02-03T11:58:01.773Z,3.65
2023-02-03T12:01:13.788Z,4.24
2023-02-03T12:04:11.919Z,4.16
2023-02-03T12:06:57.687Z,3.99
2023-02-03T12:09:47.115Z,3.39
2023-02-03T12:12:45.903Z,3.64
2023-02-03T12:15:50.977Z,3.33
2023-02-03T12:18:31.345Z,3.82
2023-02-03T12:21:28.931Z,4.33
2023-02-03T12:24:01.721Z,4.25
2023-02-03T12:26:50.961Z,4.43
2023-02-03T12:29:24.975Z,3.72
2023-02-03T12:32:13.187Z,3.67
2023-02-03T12:35:10.293Z,3.52
2023-02-03T12:37:46.547Z,4.99
2023-02-03T12:40:31.575Z,4.83
2023-02-03T12:43:19.458Z,4.27
2023-02-03T12:45:55.855Z,4.39
2023-02-03T12:48:30.075Z,4.39
2023-02-03T12:51:01.438Z,4.27
2023-02-03T12:53:34.183Z,3.83
2023-02-03T12:56:12.541Z,3.65
2023-02-03T12:58:42.159Z,3.84
2023-02-03T13:01:50.972Z,3.91
2023-02-03T13:04:33.451Z,4.11
2023-02-03T13:07:01.065Z,4.41
2023-02-03T13:09:35.021Z,4.26
2023-02-03T13:12:30.825Z,4.26
2023-02-03T13:15:21.286Z,4.11
2023-02-03T13:18:01.591Z,4.33
2023-02-03T13:20:31.433Z,3.87
2023-02-03T13:22:59.319Z,4.49
2023-02-03T13:25:46.526Z,4.12
2023-02-03T13:28:53.360Z,3.71
2023-02-03T13:31:29.850Z,4.32
2023-02-03T13:34:09.384Z,3.95
2023-02-03T13:36:52.050Z,3.81
2023-02-03T13:39:19.695Z,3.75
2023-02-03T13:42:05.975Z,3.68
2023-02-03T13:44:33.733Z,3.79
2023-02-03T13:47:01.972Z,3.90
2023-02-03T13:49:34.443Z,3.51
2023-02-03T13:52:02.207Z,3.70
2023-02-03T13:54:34.507Z,3.62
2023-02-03T13:57:03.514Z,3.49
2023-02-03T13:59:37.231Z,3.47
2023-02-03T14:02:20.311Z,3.72
2023-02-03T14:04:47.963Z,3.69
2023-02-03T14:07:38.712Z,3.71
2023-02-03T14:10:12.699Z,3.83
2023-02-03T14:12:49.545Z,3.53
2023-02-03T14:15:20.022Z,3.70
2023-02-03T14:17:47.666Z,3.56
2023-02-03T14:20:27.599Z,3.68
2023-02-03T14:23:01.899Z,3.94
2023-02-03T14:25:29.924Z,3.74
2023-02-03T14:28:02.382Z,3.58
2023-02-03T14:30:30.243Z,3.44
2023-02-03T14:32:58.992Z,3.17
2023-02-03T14:35:33.969Z,3.38
2023-02-03T14:38:06.476Z,3.14
2023-02-03T14:40:46.393Z,3.25
2023-02-03T14:43:54.440Z,3.40
2023-02-03T14:46:31.298Z,3.48
2023-02-03T14:49:23.455Z,3.31
2023-02-03T14:52:16.903Z,2.70
2023-02-03T14:54:56.678Z,2.88
2023-02-03T14:57:40.687Z,2.76
2023-02-03T15:00:23.008Z,2.89
2023-02-03T15:03:11.974Z,3.23
2023-02-03T15:05:47.196Z,2.50
2023-02-03T15:08:40.114Z,2.94
2023-02-03T15:11:24.641Z,2.71
2023-02-03T15:13:52.760Z,2.51
2023-02-03T15:16:21.878Z,3.00
2023-02-03T15:18:58.042Z,2.68
2023-02-03T15:21:25.772Z,2.94
2023-02-03T15:23:53.590Z,3.37
2023-02-03T15:26:25.390Z,2.93
2023-02-03T15:29:00.265Z,3.06
2023-02-03T15:31:32.405Z,2.17
2023-02-03T15:34:06.266Z,2.49
2023-02-03T15:36:48.249Z,2.16
2023-02-03T15:39:23.658Z,3.27
2023-02-03T15:41:52.219Z,2.82
2023-02-03T15:44:41.589Z,2.86
2023-02-03T15:47:21.586Z,3.28
2023-02-03T15:49:53.629Z,2.93
2023-02-03T15:52:22.002Z,3.13
2023-02-03T15:54:53.948Z,2.88
2023-02-03T15:57:23.934Z,3.31
2023-02-03T15:59:59.197Z,3.43
2023-02-03T16:02:40.928Z,3.53
2023-02-03T16:05:18.536Z,2.56
2023-02-03T16:07:46.277Z,2.30
2023-02-03T16:10:43.000Z,2.96
2023-02-03T16:13:21.936Z,2.52
2023-02-03T16:16:05.833Z,2.54
2023-02-03T16:18:35.922Z,1.63
2023-02-03T16:21:06.949Z,1.97
2023-02-03T16:23:34.611Z,1.67
2023-02-03T16:26:03.918Z,2.19
2023-02-03T16:28:50.351Z,1.29
2023-02-03T16:31:38.222Z,1.74
2023-02-03T16:34:35.818Z,1.99
2023-02-03T16:37:32.273Z,2.00
2023-02-03T16:40:18.531Z,1.89
2023-02-03T16:43:07.529Z,1.38
2023-02-03T16:45:53.975Z,1.70
2023-02-03T16:48:40.364Z,1.57
2023-02-03T16:51:13.329Z,1.83
2023-02-03T16:53:41.295Z,2.03
2023-02-03T16:56:08.972Z,2.41
2023-02-03T16:58:36.756Z,2.08
2023-02-03T17:01:05.742Z,1.21
2023-02-03T17:03:34.652Z,1.61
2023-02-03T17:06:06.912Z,1.53
2023-02-03T17:08:34.832Z,1.84
2023-02-03T17:11:04.531Z,1.73
2023-02-03T17:13:32.297Z,2.60
2023-02-03T17:16:00.037Z,2.53
2023-02-03T17:18:27.882Z,2.63
2023-02-03T17:20:58.098Z,2.68
2023-02-03T17:23:26.591Z,2.32
2023-02-03T17:25:54.308Z,1.65
2023-02-03T17:28:22.295Z,1.85
2023-02-03T17:31:00.498Z,1.86
2023-02-03T17:33:28.617Z,1.60
2023-02-03T17:36:15.757Z,1.44
2023-02-03T17:55:20.157Z,2.23
2023-02-03T17:57:47.907Z,1.97
2023-02-03T18:00:15.918Z,1.50
2023-02-03T18:02:43.791Z,0.47
2023-02-03T18:05:11.595Z,0.53
2023-02-03T18:07:39.548Z,1.68
2023-02-03T18:10:08.826Z,1.84
2023-02-03T18:12:36.618Z,1.92
2023-02-03T18:15:04.472Z,1.81
2023-02-03T18:17:32.160Z,1.93
2023-02-03T18:20:01.271Z,1.85
2023-02-03T18:22:29.176Z,1.36
2023-02-03T18:24:56.969Z,1.72
2023-02-03T18:27:24.804Z,2.02
2023-02-03T18:29:52.493Z,1.78
2023-02-03T18:32:20.638Z,1.56
2023-02-03T18:34:48.392Z,0.94
2023-02-03T18:37:16.104Z,1.27
2023-02-03T18:39:43.788Z,1.09
2023-02-03T18:42:11.513Z,1.06
2023-02-03T18:44:41.225Z,1.37
2023-02-03T18:47:09.022Z,1.33
2023-02-03T18:49:36.765Z,1.44
2023-02-03T18:52:04.875Z,1.59
2023-02-03T18:54:32.636Z,1.38
2023-02-03T18:57:00.404Z,1.36
2023-02-03T18:59:28.100Z,1.24
2023-02-03T19:01:55.844Z,1.63
2023-02-03T19:04:23.602Z,1.54
2023-02-03T19:06:52.571Z,1.63
2023-02-03T19:09:22.290Z,1.88
2023-02-03T19:11:50.084Z,1.64
2023-02-03T19:14:17.857Z,0.25
2023-02-03T19:16:45.638Z,0.43
2023-02-03T19:19:14.245Z,1.22
2023-02-03T19:21:41.909Z,1.37
2023-02-03T19:24:14.194Z,1.01
2023-02-03T19:26:42.452Z,0.43
2023-02-03T19:29:10.117Z,0.76
2023-02-03T19:31:37.904Z,0.68
2023-02-03T19:34:05.903Z,-0.08
2023-02-03T19:36:33.599Z,0.63
2023-02-03T19:39:01.297Z,-0.09
2023-02-03T19:41:30.906Z,0.08
2023-02-03T19:43:58.691Z,-0.16
2023-02-03T19:46:27.374Z,0.43
2023-02-03T19:48:55.092Z,0.49
2023-02-03T19:51:24.220Z,0.85
2023-02-03T19:53:53.656Z,0.62
2023-02-03T19:56:21.477Z,0.54
2023-02-03T19:58:52.057Z,1.02
2023-02-03T20:01:27.034Z,1.26
2023-02-03T20:03:54.745Z,1.37
2023-02-03T20:06:23.361Z,1.76
2023-02-03T20:08:51.707Z,1.76
2023-02-03T20:11:22.295Z,1.92
2023-02-03T20:13:50.035Z,1.67
2023-02-03T20:16:17.763Z,1.92
2023-02-03T20:18:45.663Z,1.89
2023-02-03T20:21:15.978Z,1.14
2023-02-03T20:23:43.731Z,1.52
2023-02-03T20:26:12.637Z,1.57
2023-02-03T20:28:41.330Z,1.83
2023-02-03T20:31:09.077Z,1.80
2023-02-03T20:33:36.888Z,1.82
2023-02-03T20:36:04.813Z,1.76
2023-02-03T20:38:32.598Z,1.58
2023-02-03T20:41:00.261Z,1.65
2023-02-03T20:43:28.229Z,2.16
2023-02-03T20:45:56.011Z,2.10
2023-02-03T20:48:25.600Z,2.22
2023-02-03T20:50:53.345Z,2.17
2023-02-03T20:53:22.905Z,2.30
2023-02-03T20:55:51.282Z,1.81
2023-02-03T20:58:29.529Z,1.97
2023-02-03T21:00:57.412Z,1.62
2023-02-03T21:03:43.882Z,2.01
2023-02-03T21:06:16.703Z,2.14
2023-02-03T21:08:44.996Z,1.86
2023-02-03T21:11:14.140Z,1.42
2023-02-03T21:13:43.664Z,1.84
2023-02-03T21:16:26.243Z,1.65
2023-02-03T21:19:00.224Z,2.06
2023-02-03T21:21:28.686Z,1.96
2023-02-03T21:23:56.400Z,1.69
2023-02-03T21:26:25.789Z,1.71
2023-02-03T21:28:55.197Z,1.61
2023-02-03T21:31:24.374Z,1.48
2023-02-03T21:33:56.548Z,1.45
2023-02-03T21:36:25.868Z,1.27
2023-02-03T21:38:55.119Z,0.40
2023-02-03T21:41:23.897Z,0.46
2023-02-03T21:43:56.883Z,0.40
2023-02-03T21:46:26.716Z,0.18
2023-02-03T21:48:55.727Z,0.94
2023-02-03T21:51:27.978Z,0.55
2023-02-03T21:54:00.633Z,0.56
2023-02-03T21:56:33.805Z,0.28
2023-02-03T21:59:01.669Z,0.70
2023-02-03T22:01:37.000Z,1.12
2023-02-03T22:04:06.564Z,1.16
2023-02-03T22:06:44.552Z,0.76
2023-02-03T22:09:13.565Z,1.03
2023-02-03T22:11:41.278Z,0.94
2023-02-03T22:14:08.976Z,0.52
2023-02-03T22:16:36.745Z,0.50
2023-02-03T22:19:04.543Z,0.94
2023-02-03T22:21:32.342Z,0.96
2023-02-03T22:24:00.105Z,0.74
2023-02-03T22:26:27.851Z,0.46
2023-02-03T22:28:55.629Z,1.30
2023-02-03T22:31:23.693Z,1.38
2023-02-03T22:33:51.512Z,1.51
2023-02-03T22:36:19.253Z,1.35
2023-02-03T22:38:46.976Z,1.23
2023-02-03T22:41:14.728Z,1.44
2023-02-03T22:43:42.872Z,1.69
2023-02-03T22:46:10.627Z,0.43
2023-02-03T22:48:38.500Z,0.93
2023-02-03T22:51:06.355Z,1.41
2023-02-03T22:53:34.830Z,1.58
2023-02-03T22:56:02.577Z,0.77
2023-02-03T22:58:30.393Z,0.26
2023-02-03T23:00:58.088Z,0.56
2023-02-03T23:03:25.897Z,0.83
2023-02-03T23:05:53.880Z,0.86
2023-02-03T23:08:21.665Z,0.24
2023-02-03T23:10:49.330Z,0.43
2023-02-03T23:13:17.082Z,0.71
2023-02-03T23:15:44.845Z,0.44
2023-02-03T23:18:12.645Z,0.05
2023-02-03T23:20:40.308Z,0.31
2023-02-03T23:23:08.117Z,0.44
2023-02-03T23:25:35.864Z,0.12
2023-02-03T23:28:03.844Z,0.62
2023-02-03T23:30:31.801Z,0.62
2023-02-03T23:32:59.654Z,0.20
2023-02-03T23:35:45.656Z,0.55
2023-02-03T23:38:14.417Z,0.18
2023-02-03T23:40:42.305Z,0.36
2023-02-03T23:43:10.109Z,0.62
2023-02-03T23:45:37.812Z,0.18
2023-02-03T23:48:05.769Z,0.25
2023-02-03T23:50:33.771Z,0.09
2023-02-03T23:53:01.545Z,0.30
2023-02-03T23:55:30.596Z,0.25
2023-02-03T23:57:58.358Z,0.59
